sensor_id;sensor_type;location;lat;lon;timestamp;P1;durP1;ratioP1;P2;durP2;ratioP2
6825;SDS011;3451;52.476;13.316;2022-11-14T00:01:39;75.40;;;36.00;;
6825;SDS011;3451;52.476;13.316;2022-11-14T00:04:05;68.93;;;34.80;;
6825;SDS011;3451;52.476;13.316;2022-11-14T00:06:32;68.20;;;34.83;;
6825;SDS011;3451;52.476;13.316;2022-11-14T00:08:58;66.37;;;34.87;;
6825;SDS011;3451;52.476;13.316;2022-11-14T00:11:25;68.67;;;34.03;;
6825;SDS011;3451;52.476;13.316;2022-11-14T00:13:51;72.67;;;35.10;;
6825;SDS011;3451;52.476;13.316;2022-11-14T00:16:17;69.07;;;34.87;;
6825;SDS011;3451;52.476;13.316;2022-11-14T00:18:43;68.33;;;35.00;;
6825;SDS011;3451;52.476;13.316;2022-11-14T00:21:10;62.87;;;34.23;;
6825;SDS011;3451;52.476;13.316;2022-11-14T00:23:36;62.67;;;33.57;;
6825;SDS011;3451;52.476;13.316;2022-11-14T00:26:02;68.73;;;35.53;;
6825;SDS011;3451;52.476;13.316;2022-11-14T00:28:28;69.83;;;36.20;;
6825;SDS011;3451;52.476;13.316;2022-11-14T00:30:55;70.23;;;34.57;;
6825;SDS011;3451;52.476;13.316;2022-11-14T00:33:22;70.20;;;34.23;;
6825;SDS011;3451;52.476;13.316;2022-11-14T00:35:51;68.87;;;35.27;;
6825;SDS011;3451;52.476;13.316;2022-11-14T00:38:18;67.73;;;35.57;;
6825;SDS011;3451;52.476;13.316;2022-11-14T00:40:44;68.40;;;34.13;;
6825;SDS011;3451;52.476;13.316;2022-11-14T00:43:11;68.77;;;36.07;;
6825;SDS011;3451;52.476;13.316;2022-11-14T00:45:37;67.70;;;35.03;;
6825;SDS011;3451;52.476;13.316;2022-11-14T00:48:04;70.53;;;34.90;;
6825;SDS011;3451;52.476;13.316;2022-11-14T00:50:30;71.23;;;36.73;;
6825;SDS011;3451;52.476;13.316;2022-11-14T00:52:56;71.53;;;35.23;;
6825;SDS011;3451;52.476;13.316;2022-11-14T00:55:22;73.40;;;36.40;;
6825;SDS011;3451;52.476;13.316;2022-11-14T00:57:48;75.80;;;35.87;;
6825;SDS011;3451;52.476;13.316;2022-11-14T01:00:15;77.03;;;36.30;;
6825;SDS011;3451;52.476;13.316;2022-11-14T01:02:41;74.17;;;36.47;;
6825;SDS011;3451;52.476;13.316;2022-11-14T01:05:08;75.80;;;36.13;;
6825;SDS011;3451;52.476;13.316;2022-11-14T01:07:34;72.10;;;37.57;;
6825;SDS011;3451;52.476;13.316;2022-11-14T01:10:00;70.00;;;35.27;;
6825;SDS011;3451;52.476;13.316;2022-11-14T01:12:27;77.87;;;35.87;;
6825;SDS011;3451;52.476;13.316;2022-11-14T01:14:53;70.33;;;35.63;;
6825;SDS011;3451;52.476;13.316;2022-11-14T01:17:19;73.47;;;35.87;;
6825;SDS011;3451;52.476;13.316;2022-11-14T01:19:46;72.50;;;35.83;;
6825;SDS011;3451;52.476;13.316;2022-11-14T01:22:12;80.43;;;37.93;;
6825;SDS011;3451;52.476;13.316;2022-11-14T01:24:38;71.40;;;36.67;;
6825;SDS011;3451;52.476;13.316;2022-11-14T01:27:04;77.40;;;36.90;;
6825;SDS011;3451;52.476;13.316;2022-11-14T01:29:30;78.03;;;36.77;;
6825;SDS011;3451;52.476;13.316;2022-11-14T01:31:57;79.50;;;38.27;;
6825;SDS011;3451;52.476;13.316;2022-11-14T01:34:23;76.00;;;36.40;;
6825;SDS011;3451;52.476;13.316;2022-11-14T01:36:49;80.77;;;38.80;;
6825;SDS011;3451;52.476;13.316;2022-11-14T01:39:16;74.27;;;36.07;;
6825;SDS011;3451;52.476;13.316;2022-11-14T01:41:42;78.60;;;36.13;;
6825;SDS011;3451;52.476;13.316;2022-11-14T01:44:12;74.60;;;38.10;;
6825;SDS011;3451;52.476;13.316;2022-11-14T01:46:39;71.93;;;36.50;;
6825;SDS011;3451;52.476;13.316;2022-11-14T01:51:58;80.17;;;37.80;;
6825;SDS011;3451;52.476;13.316;2022-11-14T01:54:28;80.43;;;37.73;;
6825;SDS011;3451;52.476;13.316;2022-11-14T01:56:56;81.13;;;38.07;;
6825;SDS011;3451;52.476;13.316;2022-11-14T01:59:24;82.10;;;37.97;;
6825;SDS011;3451;52.476;13.316;2022-11-14T02:01:52;81.93;;;37.40;;
6825;SDS011;3451;52.476;13.316;2022-11-14T02:04:20;81.83;;;37.40;;
6825;SDS011;3451;52.476;13.316;2022-11-14T02:06:48;85.00;;;38.90;;
6825;SDS011;3451;52.476;13.316;2022-11-14T02:09:15;89.30;;;39.67;;
6825;SDS011;3451;52.476;13.316;2022-11-14T02:11:42;83.97;;;38.50;;
6825;SDS011;3451;52.476;13.316;2022-11-14T02:14:09;88.23;;;38.87;;
6825;SDS011;3451;52.476;13.316;2022-11-14T02:16:37;84.43;;;39.37;;
6825;SDS011;3451;52.476;13.316;2022-11-14T02:19:04;83.67;;;37.27;;
6825;SDS011;3451;52.476;13.316;2022-11-14T02:21:30;82.50;;;39.00;;
6825;SDS011;3451;52.476;13.316;2022-11-14T02:23:57;85.53;;;38.53;;
6825;SDS011;3451;52.476;13.316;2022-11-14T02:26:23;78.50;;;37.43;;
6825;SDS011;3451;52.476;13.316;2022-11-14T02:28:49;79.07;;;36.33;;
6825;SDS011;3451;52.476;13.316;2022-11-14T02:31:16;85.87;;;39.33;;
6825;SDS011;3451;52.476;13.316;2022-11-14T02:33:42;83.40;;;38.33;;
6825;SDS011;3451;52.476;13.316;2022-11-14T02:36:08;88.00;;;39.10;;
6825;SDS011;3451;52.476;13.316;2022-11-14T02:38:35;81.13;;;37.97;;
6825;SDS011;3451;52.476;13.316;2022-11-14T02:41:01;83.67;;;37.60;;
6825;SDS011;3451;52.476;13.316;2022-11-14T02:43:28;83.83;;;36.37;;
6825;SDS011;3451;52.476;13.316;2022-11-14T02:45:54;83.70;;;37.67;;
6825;SDS011;3451;52.476;13.316;2022-11-14T02:48:20;82.97;;;38.53;;
6825;SDS011;3451;52.476;13.316;2022-11-14T02:50:47;84.43;;;36.93;;
6825;SDS011;3451;52.476;13.316;2022-11-14T02:53:13;83.27;;;36.73;;
6825;SDS011;3451;52.476;13.316;2022-11-14T02:55:40;84.50;;;38.80;;
6825;SDS011;3451;52.476;13.316;2022-11-14T02:58:06;82.43;;;36.50;;
6825;SDS011;3451;52.476;13.316;2022-11-14T03:00:33;81.83;;;37.17;;
6825;SDS011;3451;52.476;13.316;2022-11-14T03:02:59;87.57;;;37.50;;
6825;SDS011;3451;52.476;13.316;2022-11-14T03:05:25;84.73;;;36.73;;
6825;SDS011;3451;52.476;13.316;2022-11-14T03:07:52;81.73;;;37.50;;
6825;SDS011;3451;52.476;13.316;2022-11-14T03:10:19;82.00;;;36.53;;
6825;SDS011;3451;52.476;13.316;2022-11-14T03:12:45;81.33;;;36.43;;
6825;SDS011;3451;52.476;13.316;2022-11-14T03:15:11;82.73;;;36.73;;
6825;SDS011;3451;52.476;13.316;2022-11-14T03:17:38;78.47;;;36.90;;
6825;SDS011;3451;52.476;13.316;2022-11-14T03:20:04;89.63;;;37.27;;
6825;SDS011;3451;52.476;13.316;2022-11-14T03:25:22;79.90;;;36.90;;
6825;SDS011;3451;52.476;13.316;2022-11-14T03:27:48;89.47;;;37.50;;
6825;SDS011;3451;52.476;13.316;2022-11-14T03:30:14;78.13;;;36.80;;
6825;SDS011;3451;52.476;13.316;2022-11-14T03:32:42;79.13;;;36.93;;
6825;SDS011;3451;52.476;13.316;2022-11-14T03:35:08;85.37;;;35.83;;
6825;SDS011;3451;52.476;13.316;2022-11-14T03:37:35;85.30;;;36.50;;
6825;SDS011;3451;52.476;13.316;2022-11-14T03:40:01;80.70;;;36.67;;
6825;SDS011;3451;52.476;13.316;2022-11-14T03:42:27;81.83;;;34.97;;
6825;SDS011;3451;52.476;13.316;2022-11-14T03:44:53;77.90;;;35.67;;
6825;SDS011;3451;52.476;13.316;2022-11-14T03:47:20;78.20;;;35.70;;
6825;SDS011;3451;52.476;13.316;2022-11-14T03:49:46;89.43;;;36.67;;
6825;SDS011;3451;52.476;13.316;2022-11-14T03:52:12;80.23;;;36.27;;
6825;SDS011;3451;52.476;13.316;2022-11-14T03:54:38;79.90;;;35.37;;
6825;SDS011;3451;52.476;13.316;2022-11-14T03:57:05;82.23;;;35.47;;
6825;SDS011;3451;52.476;13.316;2022-11-14T03:59:31;74.13;;;34.97;;
6825;SDS011;3451;52.476;13.316;2022-11-14T04:01:57;79.87;;;35.63;;
6825;SDS011;3451;52.476;13.316;2022-11-14T04:04:23;74.77;;;34.93;;
6825;SDS011;3451;52.476;13.316;2022-11-14T04:06:50;74.17;;;34.97;;
6825;SDS011;3451;52.476;13.316;2022-11-14T04:09:16;86.67;;;36.40;;
6825;SDS011;3451;52.476;13.316;2022-11-14T04:11:42;87.47;;;35.60;;
6825;SDS011;3451;52.476;13.316;2022-11-14T04:14:08;80.50;;;35.33;;
6825;SDS011;3451;52.476;13.316;2022-11-14T04:16:35;75.97;;;34.53;;
6825;SDS011;3451;52.476;13.316;2022-11-14T04:19:01;80.37;;;36.03;;
6825;SDS011;3451;52.476;13.316;2022-11-14T04:21:27;78.73;;;34.60;;
6825;SDS011;3451;52.476;13.316;2022-11-14T04:23:53;79.23;;;35.47;;
6825;SDS011;3451;52.476;13.316;2022-11-14T04:26:20;79.13;;;36.00;;
6825;SDS011;3451;52.476;13.316;2022-11-14T04:28:46;81.83;;;35.13;;
6825;SDS011;3451;52.476;13.316;2022-11-14T04:31:12;88.87;;;36.63;;
6825;SDS011;3451;52.476;13.316;2022-11-14T04:33:38;86.70;;;36.83;;
6825;SDS011;3451;52.476;13.316;2022-11-14T04:36:05;81.57;;;34.70;;
6825;SDS011;3451;52.476;13.316;2022-11-14T04:38:31;75.40;;;36.00;;
6825;SDS011;3451;52.476;13.316;2022-11-14T04:40:58;89.37;;;36.97;;
6825;SDS011;3451;52.476;13.316;2022-11-14T04:43:24;85.90;;;37.77;;
6825;SDS011;3451;52.476;13.316;2022-11-14T04:45:50;84.63;;;35.30;;
6825;SDS011;3451;52.476;13.316;2022-11-14T04:48:17;85.23;;;36.03;;
6825;SDS011;3451;52.476;13.316;2022-11-14T04:50:44;77.37;;;34.67;;
6825;SDS011;3451;52.476;13.316;2022-11-14T04:53:10;84.13;;;35.53;;
6825;SDS011;3451;52.476;13.316;2022-11-14T04:55:36;78.20;;;34.77;;
6825;SDS011;3451;52.476;13.316;2022-11-14T04:58:02;85.83;;;35.80;;
6825;SDS011;3451;52.476;13.316;2022-11-14T05:00:29;86.47;;;37.00;;
6825;SDS011;3451;52.476;13.316;2022-11-14T05:02:57;83.90;;;37.37;;
6825;SDS011;3451;52.476;13.316;2022-11-14T05:05:23;83.27;;;34.50;;
6825;SDS011;3451;52.476;13.316;2022-11-14T05:07:49;91.73;;;36.37;;
6825;SDS011;3451;52.476;13.316;2022-11-14T05:10:15;85.07;;;35.87;;
6825;SDS011;3451;52.476;13.316;2022-11-14T05:12:42;89.27;;;37.17;;
6825;SDS011;3451;52.476;13.316;2022-11-14T05:15:08;92.73;;;37.90;;
6825;SDS011;3451;52.476;13.316;2022-11-14T05:17:34;90.47;;;37.63;;
6825;SDS011;3451;52.476;13.316;2022-11-14T05:20:01;90.17;;;36.73;;
6825;SDS011;3451;52.476;13.316;2022-11-14T05:22:27;88.73;;;36.50;;
6825;SDS011;3451;52.476;13.316;2022-11-14T05:24:53;88.03;;;36.53;;
6825;SDS011;3451;52.476;13.316;2022-11-14T05:27:20;83.93;;;36.53;;
6825;SDS011;3451;52.476;13.316;2022-11-14T05:29:47;85.20;;;36.37;;
6825;SDS011;3451;52.476;13.316;2022-11-14T05:32:13;86.20;;;35.67;;
6825;SDS011;3451;52.476;13.316;2022-11-14T05:34:41;91.77;;;37.20;;
6825;SDS011;3451;52.476;13.316;2022-11-14T05:37:08;96.00;;;36.93;;
6825;SDS011;3451;52.476;13.316;2022-11-14T05:39:34;86.63;;;36.53;;
6825;SDS011;3451;52.476;13.316;2022-11-14T05:42:00;93.67;;;37.30;;
6825;SDS011;3451;52.476;13.316;2022-11-14T05:44:26;94.03;;;37.13;;
6825;SDS011;3451;52.476;13.316;2022-11-14T05:46:53;88.50;;;37.07;;
6825;SDS011;3451;52.476;13.316;2022-11-14T05:49:19;98.17;;;38.13;;
6825;SDS011;3451;52.476;13.316;2022-11-14T05:51:47;89.23;;;36.30;;
6825;SDS011;3451;52.476;13.316;2022-11-14T05:54:13;93.27;;;37.07;;
6825;SDS011;3451;52.476;13.316;2022-11-14T05:56:40;91.50;;;36.73;;
6825;SDS011;3451;52.476;13.316;2022-11-14T05:59:06;84.77;;;37.00;;
6825;SDS011;3451;52.476;13.316;2022-11-14T06:01:32;93.60;;;37.27;;
6825;SDS011;3451;52.476;13.316;2022-11-14T06:03:58;95.77;;;36.97;;
6825;SDS011;3451;52.476;13.316;2022-11-14T06:06:25;87.40;;;37.17;;
6825;SDS011;3451;52.476;13.316;2022-11-14T06:08:51;87.77;;;36.50;;
6825;SDS011;3451;52.476;13.316;2022-11-14T06:11:19;98.43;;;37.37;;
6825;SDS011;3451;52.476;13.316;2022-11-14T06:13:45;90.07;;;36.03;;
6825;SDS011;3451;52.476;13.316;2022-11-14T06:16:13;95.73;;;37.90;;
6825;SDS011;3451;52.476;13.316;2022-11-14T06:18:39;89.43;;;36.33;;
6825;SDS011;3451;52.476;13.316;2022-11-14T06:21:08;87.37;;;36.03;;
6825;SDS011;3451;52.476;13.316;2022-11-14T06:23:35;95.83;;;36.50;;
6825;SDS011;3451;52.476;13.316;2022-11-14T06:26:02;89.60;;;35.00;;
6825;SDS011;3451;52.476;13.316;2022-11-14T06:28:29;87.63;;;35.87;;
6825;SDS011;3451;52.476;13.316;2022-11-14T06:30:56;89.80;;;35.13;;
6825;SDS011;3451;52.476;13.316;2022-11-14T06:33:24;84.87;;;36.03;;
6825;SDS011;3451;52.476;13.316;2022-11-14T06:35:50;79.57;;;34.07;;
6825;SDS011;3451;52.476;13.316;2022-11-14T06:38:21;91.43;;;37.77;;
6825;SDS011;3451;52.476;13.316;2022-11-14T06:40:48;91.27;;;36.17;;
6825;SDS011;3451;52.476;13.316;2022-11-14T06:43:14;86.47;;;35.73;;
6825;SDS011;3451;52.476;13.316;2022-11-14T06:45:40;87.63;;;35.40;;
6825;SDS011;3451;52.476;13.316;2022-11-14T06:48:07;92.17;;;37.93;;
6825;SDS011;3451;52.476;13.316;2022-11-14T06:50:33;93.07;;;36.80;;
6825;SDS011;3451;52.476;13.316;2022-11-14T06:52:59;92.87;;;36.93;;
6825;SDS011;3451;52.476;13.316;2022-11-14T06:55:25;89.30;;;34.90;;
6825;SDS011;3451;52.476;13.316;2022-11-14T06:57:55;91.63;;;36.43;;
6825;SDS011;3451;52.476;13.316;2022-11-14T07:00:21;88.10;;;36.90;;
6825;SDS011;3451;52.476;13.316;2022-11-14T07:02:47;87.60;;;37.07;;
6825;SDS011;3451;52.476;13.316;2022-11-14T07:05:14;85.90;;;36.47;;
6825;SDS011;3451;52.476;13.316;2022-11-14T07:07:40;85.23;;;34.00;;
6825;SDS011;3451;52.476;13.316;2022-11-14T07:10:06;96.73;;;36.67;;
6825;SDS011;3451;52.476;13.316;2022-11-14T07:12:32;85.37;;;35.97;;
6825;SDS011;3451;52.476;13.316;2022-11-14T07:14:59;93.10;;;36.90;;
6825;SDS011;3451;52.476;13.316;2022-11-14T07:17:25;92.57;;;36.67;;
6825;SDS011;3451;52.476;13.316;2022-11-14T07:19:56;84.80;;;35.40;;
6825;SDS011;3451;52.476;13.316;2022-11-14T07:22:22;89.63;;;36.17;;
6825;SDS011;3451;52.476;13.316;2022-11-14T07:24:49;88.33;;;34.07;;
6825;SDS011;3451;52.476;13.316;2022-11-14T07:27:15;98.50;;;36.97;;
6825;SDS011;3451;52.476;13.316;2022-11-14T07:29:41;89.00;;;35.73;;
6825;SDS011;3451;52.476;13.316;2022-11-14T07:32:07;88.37;;;35.70;;
6825;SDS011;3451;52.476;13.316;2022-11-14T07:34:34;87.37;;;35.47;;
6825;SDS011;3451;52.476;13.316;2022-11-14T07:37:01;78.70;;;35.13;;
6825;SDS011;3451;52.476;13.316;2022-11-14T07:39:27;94.53;;;37.63;;
6825;SDS011;3451;52.476;13.316;2022-11-14T07:41:53;80.63;;;34.93;;
6825;SDS011;3451;52.476;13.316;2022-11-14T07:44:20;87.57;;;36.47;;
6825;SDS011;3451;52.476;13.316;2022-11-14T07:46:46;90.33;;;35.70;;
6825;SDS011;3451;52.476;13.316;2022-11-14T07:49:13;80.53;;;34.23;;
6825;SDS011;3451;52.476;13.316;2022-11-14T07:51:39;94.23;;;38.33;;
6825;SDS011;3451;52.476;13.316;2022-11-14T07:54:05;85.30;;;34.27;;
6825;SDS011;3451;52.476;13.316;2022-11-14T07:56:32;77.00;;;34.27;;
6825;SDS011;3451;52.476;13.316;2022-11-14T07:58:58;82.93;;;33.53;;
6825;SDS011;3451;52.476;13.316;2022-11-14T08:01:24;85.17;;;35.47;;
6825;SDS011;3451;52.476;13.316;2022-11-14T08:03:50;82.07;;;34.53;;
6825;SDS011;3451;52.476;13.316;2022-11-14T08:06:17;82.63;;;35.00;;
6825;SDS011;3451;52.476;13.316;2022-11-14T08:08:43;91.93;;;36.30;;
6825;SDS011;3451;52.476;13.316;2022-11-14T08:11:09;79.97;;;34.27;;
6825;SDS011;3451;52.476;13.316;2022-11-14T08:13:35;85.17;;;34.63;;
6825;SDS011;3451;52.476;13.316;2022-11-14T08:16:02;75.20;;;34.50;;
6825;SDS011;3451;52.476;13.316;2022-11-14T08:18:36;79.27;;;33.70;;
6825;SDS011;3451;52.476;13.316;2022-11-14T08:21:02;81.53;;;34.20;;
6825;SDS011;3451;52.476;13.316;2022-11-14T08:23:29;82.00;;;34.60;;
6825;SDS011;3451;52.476;13.316;2022-11-14T08:25:56;77.57;;;34.10;;
6825;SDS011;3451;52.476;13.316;2022-11-14T08:28:23;84.40;;;33.27;;
6825;SDS011;3451;52.476;13.316;2022-11-14T08:30:49;80.87;;;34.57;;
6825;SDS011;3451;52.476;13.316;2022-11-14T08:33:15;79.63;;;34.07;;
6825;SDS011;3451;52.476;13.316;2022-11-14T08:35:42;78.40;;;35.00;;
6825;SDS011;3451;52.476;13.316;2022-11-14T08:38:09;75.30;;;32.90;;
6825;SDS011;3451;52.476;13.316;2022-11-14T08:40:35;76.80;;;32.37;;
6825;SDS011;3451;52.476;13.316;2022-11-14T08:43:02;77.27;;;32.57;;
6825;SDS011;3451;52.476;13.316;2022-11-14T08:45:28;74.57;;;33.30;;
6825;SDS011;3451;52.476;13.316;2022-11-14T08:47:55;70.23;;;32.60;;
6825;SDS011;3451;52.476;13.316;2022-11-14T08:50:22;72.03;;;32.57;;
6825;SDS011;3451;52.476;13.316;2022-11-14T08:52:49;68.43;;;31.63;;
6825;SDS011;3451;52.476;13.316;2022-11-14T08:55:16;67.50;;;32.00;;
6825;SDS011;3451;52.476;13.316;2022-11-14T08:57:42;67.67;;;31.53;;
6825;SDS011;3451;52.476;13.316;2022-11-14T09:00:14;66.03;;;31.87;;
6825;SDS011;3451;52.476;13.316;2022-11-14T09:02:41;76.17;;;32.43;;
6825;SDS011;3451;52.476;13.316;2022-11-14T09:05:07;68.77;;;29.87;;
6825;SDS011;3451;52.476;13.316;2022-11-14T09:07:33;70.77;;;32.53;;
6825;SDS011;3451;52.476;13.316;2022-11-14T09:10:00;65.90;;;30.33;;
6825;SDS011;3451;52.476;13.316;2022-11-14T09:12:26;66.40;;;31.17;;
6825;SDS011;3451;52.476;13.316;2022-11-14T09:14:52;68.90;;;31.20;;
6825;SDS011;3451;52.476;13.316;2022-11-14T09:17:19;69.03;;;30.87;;
6825;SDS011;3451;52.476;13.316;2022-11-14T09:19:45;65.80;;;30.93;;
6825;SDS011;3451;52.476;13.316;2022-11-14T09:22:11;67.43;;;30.77;;
6825;SDS011;3451;52.476;13.316;2022-11-14T09:24:37;71.07;;;31.63;;
6825;SDS011;3451;52.476;13.316;2022-11-14T09:27:04;95.33;;;31.70;;
6825;SDS011;3451;52.476;13.316;2022-11-14T09:29:30;69.03;;;30.60;;
6825;SDS011;3451;52.476;13.316;2022-11-14T09:31:56;64.63;;;29.77;;
6825;SDS011;3451;52.476;13.316;2022-11-14T09:34:23;69.97;;;32.03;;
6825;SDS011;3451;52.476;13.316;2022-11-14T09:36:49;64.97;;;29.60;;
6825;SDS011;3451;52.476;13.316;2022-11-14T09:39:16;67.63;;;31.30;;
6825;SDS011;3451;52.476;13.316;2022-11-14T09:47:01;58.03;;;28.97;;
6825;SDS011;3451;52.476;13.316;2022-11-14T09:49:34;60.00;;;28.40;;
6825;SDS011;3451;52.476;13.316;2022-11-14T09:52:20;55.23;;;26.93;;
6825;SDS011;3451;52.476;13.316;2022-11-14T09:54:51;51.97;;;25.87;;
6825;SDS011;3451;52.476;13.316;2022-11-14T09:57:19;56.90;;;27.87;;
6825;SDS011;3451;52.476;13.316;2022-11-14T09:59:45;55.47;;;26.97;;
6825;SDS011;3451;52.476;13.316;2022-11-14T10:02:31;53.63;;;26.70;;
6825;SDS011;3451;52.476;13.316;2022-11-14T10:10:17;56.73;;;27.53;;
6825;SDS011;3451;52.476;13.316;2022-11-14T10:20:43;49.53;;;25.93;;
6825;SDS011;3451;52.476;13.316;2022-11-14T10:25:53;45.30;;;25.13;;
6825;SDS011;3451;52.476;13.316;2022-11-14T10:28:28;53.93;;;25.90;;
6825;SDS011;3451;52.476;13.316;2022-11-14T10:36:12;51.23;;;26.07;;
6825;SDS011;3451;52.476;13.316;2022-11-14T10:38:43;51.27;;;26.10;;
6825;SDS011;3451;52.476;13.316;2022-11-14T10:41:13;50.90;;;25.30;;
6825;SDS011;3451;52.476;13.316;2022-11-14T10:43:59;46.53;;;25.03;;
6825;SDS011;3451;52.476;13.316;2022-11-14T10:46:26;52.67;;;24.87;;
6825;SDS011;3451;52.476;13.316;2022-11-14T10:48:54;51.67;;;26.03;;
6825;SDS011;3451;52.476;13.316;2022-11-14T10:53:56;49.90;;;25.80;;
6825;SDS011;3451;52.476;13.316;2022-11-14T10:56:23;47.73;;;25.13;;
6825;SDS011;3451;52.476;13.316;2022-11-14T10:58:49;47.67;;;24.97;;
6825;SDS011;3451;52.476;13.316;2022-11-14T11:01:35;46.07;;;25.90;;
6825;SDS011;3451;52.476;13.316;2022-11-14T11:04:12;58.07;;;27.33;;
6825;SDS011;3451;52.476;13.316;2022-11-14T11:06:39;53.77;;;26.53;;
6825;SDS011;3451;52.476;13.316;2022-11-14T11:09:12;48.17;;;25.80;;
6825;SDS011;3451;52.476;13.316;2022-11-14T11:11:58;47.10;;;25.13;;
6825;SDS011;3451;52.476;13.316;2022-11-14T11:14:26;50.23;;;25.73;;
6825;SDS011;3451;52.476;13.316;2022-11-14T11:17:06;48.93;;;24.80;;
6825;SDS011;3451;52.476;13.316;2022-11-14T11:19:33;48.37;;;25.07;;
6825;SDS011;3451;52.476;13.316;2022-11-14T11:21:59;42.70;;;23.67;;
6825;SDS011;3451;52.476;13.316;2022-11-14T11:24:35;43.70;;;24.80;;
6825;SDS011;3451;52.476;13.316;2022-11-14T11:30:07;41.47;;;22.50;;
6825;SDS011;3451;52.476;13.316;2022-11-14T11:32:34;46.00;;;24.57;;
6825;SDS011;3451;52.476;13.316;2022-11-14T11:35:02;45.73;;;23.73;;
6825;SDS011;3451;52.476;13.316;2022-11-14T11:37:32;42.80;;;23.77;;
6825;SDS011;3451;52.476;13.316;2022-11-14T11:40:01;46.10;;;23.03;;
6825;SDS011;3451;52.476;13.316;2022-11-14T11:42:39;46.30;;;25.03;;
6825;SDS011;3451;52.476;13.316;2022-11-14T11:45:28;43.37;;;23.90;;
6825;SDS011;3451;52.476;13.316;2022-11-14T11:47:56;41.83;;;22.63;;
6825;SDS011;3451;52.476;13.316;2022-11-14T11:50:24;43.00;;;23.50;;
6825;SDS011;3451;52.476;13.316;2022-11-14T11:53:00;45.33;;;24.17;;
6825;SDS011;3451;52.476;13.316;2022-11-14T11:55:31;45.77;;;24.53;;
6825;SDS011;3451;52.476;13.316;2022-11-14T12:00:30;42.20;;;22.90;;
6825;SDS011;3451;52.476;13.316;2022-11-14T12:02:57;43.47;;;23.63;;
6825;SDS011;3451;52.476;13.316;2022-11-14T12:05:32;39.93;;;23.20;;
6825;SDS011;3451;52.476;13.316;2022-11-14T12:10:29;39.30;;;22.57;;
6825;SDS011;3451;52.476;13.316;2022-11-14T12:13:03;39.20;;;22.67;;
6825;SDS011;3451;52.476;13.316;2022-11-14T12:18:17;46.37;;;23.53;;
6825;SDS011;3451;52.476;13.316;2022-11-14T12:23:41;36.63;;;21.30;;
6825;SDS011;3451;52.476;13.316;2022-11-14T12:26:12;38.17;;;21.87;;
6825;SDS011;3451;52.476;13.316;2022-11-14T12:29:03;38.03;;;22.27;;
6825;SDS011;3451;52.476;13.316;2022-11-14T12:31:33;38.20;;;21.93;;
6825;SDS011;3451;52.476;13.316;2022-11-14T12:34:02;40.63;;;22.27;;
6825;SDS011;3451;52.476;13.316;2022-11-14T12:36:30;37.07;;;21.30;;
6825;SDS011;3451;52.476;13.316;2022-11-14T12:38:57;37.80;;;21.40;;
6825;SDS011;3451;52.476;13.316;2022-11-14T12:41:25;36.30;;;21.53;;
6825;SDS011;3451;52.476;13.316;2022-11-14T12:43:52;37.87;;;20.47;;
6825;SDS011;3451;52.476;13.316;2022-11-14T12:46:18;36.33;;;20.90;;
6825;SDS011;3451;52.476;13.316;2022-11-14T12:48:44;36.97;;;20.93;;
6825;SDS011;3451;52.476;13.316;2022-11-14T12:53:50;34.43;;;20.07;;
6825;SDS011;3451;52.476;13.316;2022-11-14T13:04:17;34.83;;;20.10;;
6825;SDS011;3451;52.476;13.316;2022-11-14T13:09:33;39.50;;;22.17;;
6825;SDS011;3451;52.476;13.316;2022-11-14T13:18:14;35.90;;;20.90;;
6825;SDS011;3451;52.476;13.316;2022-11-14T13:21:00;33.93;;;19.70;;
6825;SDS011;3451;52.476;13.316;2022-11-14T13:33:47;32.50;;;20.70;;
6825;SDS011;3451;52.476;13.316;2022-11-14T13:39:05;36.13;;;20.87;;
6825;SDS011;3451;52.476;13.316;2022-11-14T13:44:58;37.43;;;21.47;;
6825;SDS011;3451;52.476;13.316;2022-11-14T13:49:46;35.50;;;19.63;;
6825;SDS011;3451;52.476;13.316;2022-11-14T13:52:17;37.50;;;20.00;;
6825;SDS011;3451;52.476;13.316;2022-11-14T13:54:47;37.93;;;21.83;;
6825;SDS011;3451;52.476;13.316;2022-11-14T13:57:17;40.40;;;21.20;;
6825;SDS011;3451;52.476;13.316;2022-11-14T13:59:55;31.43;;;19.23;;
6825;SDS011;3451;52.476;13.316;2022-11-14T14:05:20;35.93;;;20.63;;
6825;SDS011;3451;52.476;13.316;2022-11-14T14:08:00;32.20;;;20.10;;
6825;SDS011;3451;52.476;13.316;2022-11-14T14:10:32;37.10;;;20.13;;
6825;SDS011;3451;52.476;13.316;2022-11-14T14:13:09;28.70;;;18.17;;
6825;SDS011;3451;52.476;13.316;2022-11-14T14:15:44;33.13;;;19.47;;
6825;SDS011;3451;52.476;13.316;2022-11-14T14:20:59;33.97;;;19.40;;
6825;SDS011;3451;52.476;13.316;2022-11-14T14:29:05;32.50;;;19.07;;
6825;SDS011;3451;52.476;13.316;2022-11-14T14:31:40;35.43;;;20.33;;
6825;SDS011;3451;52.476;13.316;2022-11-14T14:34:24;30.37;;;19.37;;
6825;SDS011;3451;52.476;13.316;2022-11-14T14:36:53;31.03;;;19.73;;
6825;SDS011;3451;52.476;13.316;2022-11-14T14:39:21;30.83;;;19.00;;
6825;SDS011;3451;52.476;13.316;2022-11-14T14:41:47;30.47;;;17.87;;
6825;SDS011;3451;52.476;13.316;2022-11-14T14:44:19;30.83;;;18.93;;
6825;SDS011;3451;52.476;13.316;2022-11-14T14:46:48;30.10;;;19.10;;
6825;SDS011;3451;52.476;13.316;2022-11-14T14:49:19;32.30;;;19.00;;
6825;SDS011;3451;52.476;13.316;2022-11-14T14:51:46;29.13;;;18.53;;
6825;SDS011;3451;52.476;13.316;2022-11-14T14:54:51;29.30;;;18.77;;
6825;SDS011;3451;52.476;13.316;2022-11-14T14:57:14;34.53;;;19.03;;
6825;SDS011;3451;52.476;13.316;2022-11-14T14:59:41;31.00;;;19.17;;
6825;SDS011;3451;52.476;13.316;2022-11-14T15:02:12;26.63;;;17.60;;
6825;SDS011;3451;52.476;13.316;2022-11-14T15:04:39;27.20;;;17.80;;
6825;SDS011;3451;52.476;13.316;2022-11-14T15:07:14;33.63;;;19.23;;
6825;SDS011;3451;52.476;13.316;2022-11-14T15:12:17;31.43;;;18.77;;
6825;SDS011;3451;52.476;13.316;2022-11-14T15:14:44;30.87;;;18.90;;
6825;SDS011;3451;52.476;13.316;2022-11-14T15:17:10;34.50;;;19.27;;
6825;SDS011;3451;52.476;13.316;2022-11-14T15:19:40;30.77;;;19.33;;
6825;SDS011;3451;52.476;13.316;2022-11-14T15:24:39;33.70;;;19.23;;
6825;SDS011;3451;52.476;13.316;2022-11-14T15:27:12;33.27;;;19.03;;
6825;SDS011;3451;52.476;13.316;2022-11-14T15:29:52;30.23;;;19.37;;
6825;SDS011;3451;52.476;13.316;2022-11-14T15:32:22;30.20;;;19.33;;
6825;SDS011;3451;52.476;13.316;2022-11-14T15:37:34;27.03;;;18.20;;
6825;SDS011;3451;52.476;13.316;2022-11-14T15:40:16;31.03;;;19.77;;
6825;SDS011;3451;52.476;13.316;2022-11-14T15:42:43;31.10;;;19.63;;
6825;SDS011;3451;52.476;13.316;2022-11-14T15:45:28;31.53;;;19.07;;
6825;SDS011;3451;52.476;13.316;2022-11-14T15:48:10;28.90;;;18.70;;
6825;SDS011;3451;52.476;13.316;2022-11-14T15:50:37;28.73;;;18.73;;
6825;SDS011;3451;52.476;13.316;2022-11-14T15:53:04;31.20;;;18.83;;
6825;SDS011;3451;52.476;13.316;2022-11-14T15:55:31;29.67;;;19.60;;
6825;SDS011;3451;52.476;13.316;2022-11-14T15:57:58;29.47;;;20.07;;
6825;SDS011;3451;52.476;13.316;2022-11-14T16:00:45;31.50;;;20.13;;
6825;SDS011;3451;52.476;13.316;2022-11-14T16:03:14;32.00;;;19.27;;
6825;SDS011;3451;52.476;13.316;2022-11-14T16:05:41;38.63;;;21.63;;
6825;SDS011;3451;52.476;13.316;2022-11-14T16:08:09;32.43;;;20.80;;
6825;SDS011;3451;52.476;13.316;2022-11-14T16:10:35;32.20;;;20.47;;
6825;SDS011;3451;52.476;13.316;2022-11-14T16:13:02;33.63;;;20.53;;
6825;SDS011;3451;52.476;13.316;2022-11-14T16:15:28;33.97;;;21.30;;
6825;SDS011;3451;52.476;13.316;2022-11-14T16:17:54;31.77;;;21.13;;
6825;SDS011;3451;52.476;13.316;2022-11-14T16:20:22;37.17;;;20.23;;
6825;SDS011;3451;52.476;13.316;2022-11-14T16:22:48;32.17;;;20.07;;
6825;SDS011;3451;52.476;13.316;2022-11-14T16:25:21;37.77;;;21.60;;